Time,TemperatureF,DewpointF,PressureIn,WindDirection,WindDirectionDegrees,WindSpeedMPH,WindSpeedGustMPH,Humidity,HourlyPrecipIn,Conditions,Clouds,dailyrainin,SoftwareType,DateUTC
2013-08-28 00:01:00,67.8,67.2,29.86,SE,130,0.0,0.0,98,0.00,,,0.41,Wunderground PWS Mod,2013-08-28 04:01:00,
2013-08-28 00:02:00,67.8,67.2,29.86,SE,130,0.0,0.0,98,0.00,,,0.41,Wunderground PWS Mod,2013-08-28 04:02:00,
2013-08-28 00:03:00,67.8,67.2,29.86,SE,130,0.0,0.0,98,0.00,,,0.00,Wunderground PWS Mod,2013-08-28 04:03:00,
2013-08-28 00:07:00,67.8,67.2,29.86,SE,130,0.0,0.0,98,0.00,,,0.00,Wunderground PWS Mod,2013-08-28 04:07:00,
2013-08-28 00:11:00,67.9,67.3,29.86,N/A,-737280,0.0,0.0,98,0.00,,,0.00,Wunderground PWS Mod,2013-08-28 04:11:00,
2013-08-28 00:12:00,67.9,67.3,29.86,SE,130,0.0,0.0,98,0.00,,,0.00,Wunderground PWS Mod,2013-08-28 04:12:00,
2013-08-28 00:14:00,67.9,67.3,29.86,SE,130,0.0,0.0,98,0.00,,,0.00,Wunderground PWS Mod,2013-08-28 04:14:00,
2013-08-28 00:20:00,67.9,67.3,29.86,SE,130,0.0,0.0,98,0.00,,,0.00,Wunderground PWS Mod,2013-08-28 04:20:00,
2013-08-28 00:25:00,67.9,67.3,29.86,SE,130,0.0,0.0,98,0.00,,,0.00,Wunderground PWS Mod,2013-08-28 04:25:00,
2013-08-28 00:30:00,67.9,67.3,29.86,SE,130,0.0,0.0,98,0.00,,,0.00,Wunderground PWS Mod,2013-08-28 04:30:00,
2013-08-28 00:35:00,67.8,67.2,29.86,SE,130,0.0,0.0,98,0.00,,,0.00,Wunderground PWS Mod,2013-08-28 04:35:00,
2013-08-28 00:41:00,67.8,67.2,29.86,SE,130,0.0,0.0,98,0.00,,,0.00,Wunderground PWS Mod,2013-08-28 04:41:00,
2013-08-28 00:46:00,67.7,66.8,29.86,SE,130,0.0,0.0,97,0.00,,,0.00,Wunderground PWS Mod,2013-08-28 04:46:00,
2013-08-28 00:52:00,67.6,66.7,29.86,SE,130,0.0,0.0,97,0.00,,,0.00,Wunderground PWS Mod,2013-08-28 04:52:00,
2013-08-28 00:57:00,67.6,67.0,29.85,SE,130,0.0,0.0,98,0.00,,,0.00,Wunderground PWS Mod,2013-08-28 04:57:00,
2013-08-28 01:03:00,67.4,66.5,29.85,SE,130,0.0,0.0,97,0.00,,,0.00,Wunderground PWS Mod,2013-08-28 05:03:00,
2013-08-28 01:08:00,67.4,66.8,29.85,SE,130,0.0,0.0,98,0.00,,,0.00,Wunderground PWS Mod,2013-08-28 05:08:00,
2013-08-28 01:13:00,67.3,66.7,29.84,SE,130,0.0,0.0,98,0.00,,,0.00,Wunderground PWS Mod,2013-08-28 05:13:00,
2013-08-28 01:18:00,67.5,66.9,29.84,SE,130,0.0,0.0,98,0.00,,,0.00,Wunderground PWS Mod,2013-08-28 05:18:00,
2013-08-28 01:23:00,67.6,67.0,29.84,SE,130,0.0,0.0,98,0.00,,,0.00,Wunderground PWS Mod,2013-08-28 05:23:00,
2013-08-28 01:28:00,67.7,67.1,29.84,SSE,157,0.0,0.0,98,0.00,,,0.00,Wunderground PWS Mod,2013-08-28 05:28:00,
2013-08-28 01:33:00,67.7,67.1,29.84,SSE,157,0.0,0.0,98,0.00,,,0.00,Wunderground PWS Mod,2013-08-28 05:33:00,
2013-08-28 01:38:00,67.6,67.0,29.84,SSE,157,0.0,0.0,98,0.00,,,0.00,Wunderground PWS Mod,2013-08-28 05:38:00,
2013-08-28 01:44:00,67.6,67.0,29.84,SSE,157,0.0,0.0,98,0.00,,,0.00,Wunderground PWS Mod,2013-08-28 05:44:00,
2013-08-28 01:50:00,67.5,66.9,29.84,SSE,157,0.0,0.0,98,0.00,,,0.00,Wunderground PWS Mod,2013-08-28 05:50:00,
2013-08-28 01:55:00,67.6,67.0,29.84,SSE,157,0.0,0.0,98,0.00,,,0.00,Wunderground PWS Mod,2013-08-28 05:55:00,
2013-08-28 02:00:00,67.5,66.9,29.84,SSE,167,0.0,0.0,98,0.00,,,0.00,Wunderground PWS Mod,2013-08-28 06:00:00,
2013-08-28 02:05:00,67.5,66.9,29.83,SSE,167,0.0,0.0,98,0.00,,,0.00,Wunderground PWS Mod,2013-08-28 06:05:00,
2013-08-28 02:11:00,67.5,66.9,29.83,SSE,167,0.0,0.0,98,0.00,,,0.00,Wunderground PWS Mod,2013-08-28 06:11:00,
2013-08-28 02:16:00,67.4,66.8,29.83,SSE,167,0.0,0.0,98,0.00,,,0.00,Wunderground PWS Mod,2013-08-28 06:16:00,
2013-08-28 02:21:00,67.4,66.8,29.83,SSE,167,0.0,0.0,98,0.00,,,0.00,Wunderground PWS Mod,2013-08-28 06:21:00,
2013-08-28 02:27:00,67.4,66.8,29.83,South,171,0.0,0.0,98,0.00,,,0.00,Wunderground PWS Mod,2013-08-28 06:27:00,
2013-08-28 02:32:00,67.5,66.9,29.83,South,171,0.0,0.0,98,0.00,,,0.00,Wunderground PWS Mod,2013-08-28 06:32:00,
2013-08-28 02:37:00,67.5,66.9,29.83,South,171,0.0,0.0,98,0.00,,,0.00,Wunderground PWS Mod,2013-08-28 06:37:00,
2013-08-28 02:43:00,67.5,66.9,29.83,South,171,0.0,0.0,98,0.00,,,0.00,Wunderground PWS Mod,2013-08-28 06:43:00,
2013-08-28 02:48:00,67.5,66.9,29.83,South,171,0.0,0.0,98,0.00,,,0.00,Wunderground PWS Mod,2013-08-28 06:48:00,
2013-08-28 02:53:00,67.6,67.0,29.83,South,171,0.0,0.0,98,0.00,,,0.00,Wunderground PWS Mod,2013-08-28 06:53:00,
2013-08-28 02:59:00,67.8,67.2,29.83,South,171,0.0,0.0,98,0.00,,,0.00,Wunderground PWS Mod,2013-08-28 06:59:00,
2013-08-28 03:04:00,67.9,67.6,29.83,South,171,0.0,0.0,99,0.00,,,0.00,Wunderground PWS Mod,2013-08-28 07:04:00,
2013-08-28 03:10:00,68.0,67.7,29.83,South,171,0.0,0.0,99,0.00,,,0.00,Wunderground PWS Mod,2013-08-28 07:10:00,
2013-08-28 03:15:00,67.7,67.1,29.83,South,171,0.0,0.0,98,0.00,,,0.00,Wunderground PWS Mod,2013-08-28 07:15:00,
2013-08-28 03:20:00,67.6,67.0,29.82,South,171,0.0,0.0,98,0.00,,,0.00,Wunderground PWS Mod,2013-08-28 07:20:00,
2013-08-28 03:25:00,67.6,67.0,29.82,South,171,0.0,0.0,98,0.00,,,0.00,Wunderground PWS Mod,2013-08-28 07:25:00,
2013-08-28 03:31:00,67.7,67.1,29.82,South,171,0.0,0.0,98,0.00,,,0.00,Wunderground PWS Mod,2013-08-28 07:31:00,
2013-08-28 03:36:00,67.8,67.2,29.82,South,171,0.0,0.0,98,0.00,,,0.00,Wunderground PWS Mod,2013-08-28 07:36:00,
2013-08-28 03:41:00,67.9,67.3,29.82,South,171,0.0,0.0,98,0.00,,,0.00,Wunderground PWS Mod,2013-08-28 07:41:00,
2013-08-28 03:46:00,67.8,67.2,29.82,South,171,0.0,0.0,98,0.00,,,0.00,Wunderground PWS Mod,2013-08-28 07:46:00,
2013-08-28 03:53:00,67.7,67.1,29.82,South,171,0.0,0.0,98,0.00,,,0.00,Wunderground PWS Mod,2013-08-28 07:53:00,
2013-08-28 03:55:00,67.7,67.1,29.82,South,171,0.0,0.0,98,0.00,,,0.00,Wunderground PWS Mod,2013-08-28 07:55:00,
2013-08-28 04:00:00,67.7,67.1,29.82,South,171,0.0,0.0,98,0.00,,,0.00,Wunderground PWS Mod,2013-08-28 08:00:00,
2013-08-28 04:05:00,67.7,67.1,29.82,South,171,0.0,0.0,98,0.00,,,0.00,Wunderground PWS Mod,2013-08-28 08:05:00,
2013-08-28 04:08:00,67.7,67.1,29.82,N/A,-737280,0.0,0.0,98,0.00,,,0.00,Wunderground PWS Mod,2013-08-28 08:08:00,
2013-08-28 04:11:00,67.6,67.0,29.82,South,171,0.0,0.0,98,0.00,,,0.00,Wunderground PWS Mod,2013-08-28 08:11:00,
2013-08-28 04:16:00,67.5,66.9,29.82,South,171,0.0,0.0,98,0.00,,,0.00,Wunderground PWS Mod,2013-08-28 08:16:00,
2013-08-28 04:21:00,67.4,66.8,29.82,South,171,0.0,0.0,98,0.00,,,0.00,Wunderground PWS Mod,2013-08-28 08:21:00,
2013-08-28 04:26:00,67.3,66.7,29.82,South,171,0.0,0.0,98,0.00,,,0.00,Wunderground PWS Mod,2013-08-28 08:26:00,
2013-08-28 04:32:00,67.2,66.6,29.82,South,171,0.0,0.0,98,0.00,,,0.00,Wunderground PWS Mod,2013-08-28 08:32:00,
2013-08-28 04:37:00,67.2,66.6,29.82,South,171,0.0,0.0,98,0.00,,,0.00,Wunderground PWS Mod,2013-08-28 08:37:00,
2013-08-28 04:42:00,67.2,66.6,29.82,South,171,0.0,0.0,98,0.00,,,0.00,Wunderground PWS Mod,2013-08-28 08:42:00,
2013-08-28 04:48:00,67.2,66.6,29.82,South,171,0.0,0.0,98,0.00,,,0.00,Wunderground PWS Mod,2013-08-28 08:48:00,
2013-08-28 04:53:00,67.2,66.6,29.82,South,171,0.0,0.0,98,0.00,,,0.00,Wunderground PWS Mod,2013-08-28 08:53:00,
2013-08-28 04:58:00,67.2,66.6,29.82,South,171,0.0,0.0,98,0.00,,,0.00,Wunderground PWS Mod,2013-08-28 08:58:00,
2013-08-28 05:03:00,67.2,66.6,29.82,South,171,0.0,0.0,98,0.00,,,0.00,Wunderground PWS Mod,2013-08-28 09:03:00,
2013-08-28 05:09:00,67.2,66.6,29.82,South,171,0.0,0.0,98,0.00,,,0.00,Wunderground PWS Mod,2013-08-28 09:09:00,
2013-08-28 05:14:00,67.2,66.6,29.82,South,171,0.0,0.0,98,0.00,,,0.00,Wunderground PWS Mod,2013-08-28 09:14:00,
2013-08-28 05:20:00,67.2,66.6,29.82,South,171,0.0,0.0,98,0.00,,,0.00,Wunderground PWS Mod,2013-08-28 09:20:00,
2013-08-28 05:25:00,67.2,66.6,29.83,South,171,0.0,0.0,98,0.00,,,0.00,Wunderground PWS Mod,2013-08-28 09:25:00,
2013-08-28 05:31:00,67.2,66.9,29.83,South,171,0.0,0.0,99,0.00,,,0.00,Wunderground PWS Mod,2013-08-28 09:31:00,
2013-08-28 05:35:00,67.2,66.9,29.83,South,171,0.0,0.0,99,0.00,,,0.00,Wunderground PWS Mod,2013-08-28 09:35:00,
2013-08-28 05:40:00,67.2,66.9,29.83,South,171,0.0,0.0,99,0.00,,,0.00,Wunderground PWS Mod,2013-08-28 09:40:00,
2013-08-28 05:46:00,67.3,67.0,29.83,South,171,0.0,0.0,99,0.00,,,0.00,Wunderground PWS Mod,2013-08-28 09:46:00,
2013-08-28 05:51:00,67.3,67.0,29.83,South,171,0.0,0.0,99,0.00,,,0.00,Wunderground PWS Mod,2013-08-28 09:51:00,
2013-08-28 05:56:00,67.4,67.1,29.83,South,171,0.0,0.0,99,0.00,,,0.00,Wunderground PWS Mod,2013-08-28 09:56:00,
2013-08-28 06:01:00,67.4,67.1,29.83,South,171,0.0,0.0,99,0.00,,,0.00,Wunderground PWS Mod,2013-08-28 10:01:00,
2013-08-28 06:07:00,67.3,67.0,29.84,South,171,0.0,0.0,99,0.00,,,0.00,Wunderground PWS Mod,2013-08-28 10:07:00,
2013-08-28 06:12:00,67.3,67.0,29.84,South,171,0.0,0.0,99,0.00,,,0.00,Wunderground PWS Mod,2013-08-28 10:12:00,
2013-08-28 06:18:00,67.3,67.0,29.84,South,171,0.0,0.0,99,0.00,,,0.00,Wunderground PWS Mod,2013-08-28 10:18:00,
2013-08-28 06:24:00,67.2,66.9,29.84,South,171,0.0,0.0,99,0.00,,,0.00,Wunderground PWS Mod,2013-08-28 10:24:00,
2013-08-28 06:30:00,67.1,66.8,29.84,South,171,0.0,0.0,99,0.00,,,0.00,Wunderground PWS Mod,2013-08-28 10:30:00,
2013-08-28 06:36:00,67.1,66.8,29.84,South,171,0.0,0.0,99,0.00,,,0.00,Wunderground PWS Mod,2013-08-28 10:36:00,
2013-08-28 06:41:00,67.1,66.8,29.84,South,171,0.0,0.0,99,0.00,,,0.00,Wunderground PWS Mod,2013-08-28 10:41:00,
2013-08-28 06:46:00,67.1,66.8,29.84,South,171,0.0,0.0,99,0.00,,,0.00,Wunderground PWS Mod,2013-08-28 10:46:00,
2013-08-28 06:52:00,67.1,66.8,29.84,South,171,0.0,0.0,99,0.00,,,0.00,Wunderground PWS Mod,2013-08-28 10:52:00,
2013-08-28 06:57:00,67.2,66.9,29.85,South,171,0.0,0.0,99,0.00,,,0.00,Wunderground PWS Mod,2013-08-28 10:57:00,
2013-08-28 07:02:00,67.3,67.0,29.85,South,171,0.0,0.0,99,0.00,,,0.00,Wunderground PWS Mod,2013-08-28 11:02:00,
2013-08-28 07:07:00,67.3,67.0,29.85,South,171,0.0,0.0,99,0.00,,,0.00,Wunderground PWS Mod,2013-08-28 11:07:00,
2013-08-28 07:13:00,67.3,67.0,29.85,South,171,0.0,0.0,99,0.00,,,0.00,Wunderground PWS Mod,2013-08-28 11:13:00,
2013-08-28 07:18:00,67.4,67.1,29.85,South,171,0.0,0.0,99,0.00,,,0.00,Wunderground PWS Mod,2013-08-28 11:18:00,
2013-08-28 07:23:00,67.4,67.1,29.85,South,171,0.0,0.0,99,0.00,,,0.00,Wunderground PWS Mod,2013-08-28 11:23:00,
2013-08-28 07:29:00,67.5,67.2,29.85,South,171,0.0,0.0,99,0.00,,,0.00,Wunderground PWS Mod,2013-08-28 11:29:00,
2013-08-28 07:35:00,67.5,67.2,29.85,South,171,0.0,0.0,99,0.00,,,0.00,Wunderground PWS Mod,2013-08-28 11:35:00,
2013-08-28 07:40:00,67.5,67.2,29.85,South,171,0.0,0.0,99,0.00,,,0.00,Wunderground PWS Mod,2013-08-28 11:40:00,
2013-08-28 07:45:00,67.5,67.2,29.85,South,171,0.0,0.0,99,0.00,,,0.00,Wunderground PWS Mod,2013-08-28 11:45:00,
2013-08-28 07:50:00,67.6,67.3,29.85,South,171,0.0,0.0,99,0.00,,,0.00,Wunderground PWS Mod,2013-08-28 11:50:00,
2013-08-28 07:55:00,67.7,67.4,29.85,North,350,0.0,2.0,99,0.00,,,0.00,Wunderground PWS Mod,2013-08-28 11:55:00,
2013-08-28 08:01:00,67.6,67.3,29.85,North,351,0.0,0.0,99,0.00,,,0.00,Wunderground PWS Mod,2013-08-28 12:01:00,
2013-08-28 08:06:00,67.7,67.4,29.85,North,351,0.0,3.0,99,0.00,,,0.00,Wunderground PWS Mod,2013-08-28 12:06:00,
2013-08-28 08:12:00,67.9,67.6,29.85,North,351,0.0,3.0,99,0.00,,,0.00,Wunderground PWS Mod,2013-08-28 12:12:00,
2013-08-28 08:14:00,67.6,67.3,29.85,North,0,0.0,3.0,99,0.00,,,0.00,Wunderground PWS Mod,2013-08-28 12:14:00,
2013-08-28 08:17:00,68.1,67.8,29.85,North,351,0.0,3.0,99,0.00,,,0.00,Wunderground PWS Mod,2013-08-28 12:17:00,
2013-08-28 08:22:00,68.2,67.9,29.85,North,351,0.0,3.0,99,0.00,,,0.00,Wunderground PWS Mod,2013-08-28 12:22:00,
2013-08-28 08:27:00,68.5,68.2,29.85,North,351,0.0,3.0,99,0.00,,,0.00,Wunderground PWS Mod,2013-08-28 12:27:00,
2013-08-28 08:33:00,68.7,68.4,29.85,North,351,0.0,3.0,99,0.00,,,0.00,Wunderground PWS Mod,2013-08-28 12:33:00,
2013-08-28 08:38:00,68.8,68.5,29.85,North,351,0.0,3.0,99,0.00,,,0.00,Wunderground PWS Mod,2013-08-28 12:38:00,
2013-08-28 08:43:00,69.2,68.9,29.85,North,351,0.0,3.0,99,0.00,,,0.00,Wunderground PWS Mod,2013-08-28 12:43:00,
2013-08-28 08:49:00,69.4,69.1,29.85,North,351,0.0,3.0,99,0.00,,,0.00,Wunderground PWS Mod,2013-08-28 12:49:00,
2013-08-28 08:54:00,69.7,69.4,29.85,North,351,0.0,3.0,99,0.00,,,0.00,Wunderground PWS Mod,2013-08-28 12:54:00,
2013-08-28 09:00:00,69.9,69.6,29.85,North,351,0.0,3.0,99,0.00,,,0.00,Wunderground PWS Mod,2013-08-28 13:00:00,
2013-08-28 09:05:00,70.2,69.9,29.85,North,351,0.0,3.0,99,0.00,,,0.00,Wunderground PWS Mod,2013-08-28 13:05:00,
2013-08-28 09:10:00,70.3,70.0,29.85,North,351,0.0,3.0,99,0.00,,,0.00,Wunderground PWS Mod,2013-08-28 13:10:00,
2013-08-28 09:15:00,70.5,70.2,29.85,North,351,0.0,3.0,99,0.00,,,0.00,Wunderground PWS Mod,2013-08-28 13:15:00,
2013-08-28 09:21:00,70.8,70.5,29.85,North,351,0.0,3.0,99,0.00,,,0.00,Wunderground PWS Mod,2013-08-28 13:21:00,
2013-08-28 09:26:00,71.1,70.8,29.86,North,351,0.0,3.0,99,0.00,,,0.00,Wunderground PWS Mod,2013-08-28 13:26:00,
2013-08-28 09:32:00,71.4,71.1,29.86,North,351,0.0,3.0,99,0.00,,,0.00,Wunderground PWS Mod,2013-08-28 13:32:00,
2013-08-28 09:37:00,71.5,71.2,29.85,North,351,0.0,3.0,99,0.00,,,0.00,Wunderground PWS Mod,2013-08-28 13:37:00,
2013-08-28 09:42:00,71.8,71.5,29.85,North,355,0.0,3.0,99,0.00,,,0.00,Wunderground PWS Mod,2013-08-28 13:42:00,
2013-08-28 09:47:00,72.2,71.9,29.85,North,355,0.0,3.0,99,0.00,,,0.00,Wunderground PWS Mod,2013-08-28 13:47:00,
2013-08-28 09:53:00,72.6,72.3,29.85,North,355,0.0,3.0,99,0.00,,,0.00,Wunderground PWS Mod,2013-08-28 13:53:00,
2013-08-28 09:58:00,73.0,72.7,29.85,North,355,0.0,3.0,99,0.00,,,0.00,Wunderground PWS Mod,2013-08-28 13:58:00,
2013-08-28 10:04:00,73.2,72.9,29.85,North,355,0.0,3.0,99,0.00,,,0.00,Wunderground PWS Mod,2013-08-28 14:04:00,
2013-08-28 10:10:00,73.4,72.8,29.85,NNW,331,0.0,3.0,98,0.00,,,0.00,Wunderground PWS Mod,2013-08-28 14:10:00,
2013-08-28 10:15:00,73.9,73.0,29.85,SSW,213,0.0,3.0,97,0.00,,,0.00,Wunderground PWS Mod,2013-08-28 14:15:00,
2013-08-28 10:20:00,74.5,73.0,29.85,SSW,198,0.0,3.0,95,0.00,,,0.00,Wunderground PWS Mod,2013-08-28 14:20:00,
2013-08-28 10:25:00,75.2,73.0,29.85,SSW,194,0.0,3.0,93,0.00,,,0.00,Wunderground PWS Mod,2013-08-28 14:25:00,
2013-08-28 10:30:00,76.1,73.6,29.85,SSW,212,0.0,3.0,92,0.00,,,0.00,Wunderground PWS Mod,2013-08-28 14:30:00,
2013-08-28 10:36:00,76.8,73.0,29.85,SSW,213,0.0,3.0,88,0.00,,,0.00,Wunderground PWS Mod,2013-08-28 14:36:00,
2013-08-28 10:41:00,77.6,73.1,29.85,SSW,213,0.0,3.0,86,0.00,,,0.00,Wunderground PWS Mod,2013-08-28 14:41:00,
2013-08-28 10:47:00,78.5,73.3,29.85,SW,225,0.0,3.0,84,0.00,,,0.00,Wunderground PWS Mod,2013-08-28 14:47:00,
2013-08-28 10:52:00,78.9,72.9,29.85,SSW,213,0.0,3.0,82,0.00,,,0.00,Wunderground PWS Mod,2013-08-28 14:52:00,
2013-08-28 10:57:00,79.1,73.1,29.85,SSW,202,0.0,3.0,82,0.00,,,0.00,Wunderground PWS Mod,2013-08-28 14:57:00,
2013-08-28 11:02:00,79.3,72.6,29.85,WSW,255,0.0,3.0,80,0.00,,,0.00,Wunderground PWS Mod,2013-08-28 15:02:00,
2013-08-28 11:07:00,79.2,72.9,29.85,South,185,0.0,3.0,81,0.00,,,0.00,Wunderground PWS Mod,2013-08-28 15:07:00,
2013-08-28 11:13:00,79.0,72.3,29.85,ESE,112,0.0,3.0,80,0.00,,,0.00,Wunderground PWS Mod,2013-08-28 15:13:00,
2013-08-28 11:18:00,79.2,72.5,29.85,SSW,200,0.0,3.0,80,0.00,,,0.00,Wunderground PWS Mod,2013-08-28 15:18:00,
2013-08-28 11:23:00,79.4,72.7,29.85,SSW,207,0.0,3.0,80,0.00,,,0.00,Wunderground PWS Mod,2013-08-28 15:23:00,
2013-08-28 11:28:00,79.7,72.2,29.84,WSW,257,0.0,3.0,78,0.00,,,0.00,Wunderground PWS Mod,2013-08-28 15:28:00,
2013-08-28 11:33:00,80.1,73.0,29.84,WSW,256,0.0,3.0,79,0.00,,,0.00,Wunderground PWS Mod,2013-08-28 15:33:00,
2013-08-28 11:38:00,80.4,72.5,29.84,SSW,192,0.0,3.0,77,0.00,,,0.00,Wunderground PWS Mod,2013-08-28 15:38:00,
2013-08-28 11:44:00,80.7,73.2,29.84,SSW,192,0.0,3.0,78,0.00,,,0.00,Wunderground PWS Mod,2013-08-28 15:44:00,
2013-08-28 11:50:00,81.1,73.6,29.84,SSW,206,0.0,3.0,78,0.00,,,0.00,Wunderground PWS Mod,2013-08-28 15:50:00,
2013-08-28 11:56:00,81.5,72.8,29.84,SW,223,0.0,3.0,75,0.00,,,0.00,Wunderground PWS Mod,2013-08-28 15:56:00,
2013-08-28 12:01:00,81.7,73.0,29.84,West,265,0.0,3.0,75,0.00,,,0.00,Wunderground PWS Mod,2013-08-28 16:01:00,
2013-08-28 12:06:00,81.8,73.1,29.84,SSW,200,0.0,3.0,75,0.00,,,0.00,Wunderground PWS Mod,2013-08-28 16:06:00,
2013-08-28 12:12:00,82.0,72.9,29.84,ESE,117,0.0,3.0,74,0.00,,,0.00,Wunderground PWS Mod,2013-08-28 16:12:00,
2013-08-28 12:14:00,81.7,73.0,29.84,SSW,203,0.0,3.0,75,0.00,,,0.00,Wunderground PWS Mod,2013-08-28 16:14:00,
2013-08-28 12:17:00,81.8,72.3,29.84,WSW,255,0.0,3.0,73,0.00,,,0.00,Wunderground PWS Mod,2013-08-28 16:17:00,
2013-08-28 12:22:00,81.7,72.6,29.84,SSE,161,0.0,3.0,74,0.00,,,0.00,Wunderground PWS Mod,2013-08-28 16:22:00,
2013-08-28 12:27:00,81.8,73.1,29.84,WSW,243,0.0,3.0,75,0.00,,,0.00,Wunderground PWS Mod,2013-08-28 16:27:00,
2013-08-28 12:33:00,81.8,72.7,29.84,SW,233,0.0,3.0,74,0.00,,,0.00,Wunderground PWS Mod,2013-08-28 16:33:00,
2013-08-28 12:38:00,81.9,73.6,29.84,SE,129,0.0,3.0,76,0.00,,,0.00,Wunderground PWS Mod,2013-08-28 16:38:00,
2013-08-28 12:43:00,81.9,73.2,29.84,South,185,0.0,3.0,75,0.00,,,0.00,Wunderground PWS Mod,2013-08-28 16:43:00,
2013-08-28 12:48:00,82.2,72.7,29.84,SSW,198,0.0,3.0,73,0.00,,,0.00,Wunderground PWS Mod,2013-08-28 16:48:00,
2013-08-28 12:54:00,82.5,73.4,29.84,SW,223,0.0,3.0,74,0.00,,,0.00,Wunderground PWS Mod,2013-08-28 16:54:00,
2013-08-28 13:00:00,82.9,73.4,29.83,SSW,192,0.0,3.0,73,0.00,,,0.00,Wunderground PWS Mod,2013-08-28 17:00:00,
2013-08-28 13:05:00,83.3,73.7,29.83,SSW,202,0.0,3.0,73,0.00,,,0.00,Wunderground PWS Mod,2013-08-28 17:05:00,
2013-08-28 13:10:00,83.6,73.6,29.83,SSE,148,0.0,3.0,72,0.00,,,0.00,Wunderground PWS Mod,2013-08-28 17:10:00,
2013-08-28 13:16:00,83.9,73.9,29.83,ENE,59,0.0,3.0,72,0.00,,,0.00,Wunderground PWS Mod,2013-08-28 17:16:00,
2013-08-28 13:21:00,83.7,72.9,29.83,SSW,197,0.0,3.0,70,0.00,,,0.00,Wunderground PWS Mod,2013-08-28 17:21:00,
2013-08-28 13:26:00,83.6,74.0,29.83,SSW,196,0.0,3.0,73,0.00,,,0.00,Wunderground PWS Mod,2013-08-28 17:26:00,
2013-08-28 13:32:00,83.3,73.3,29.83,SW,225,0.0,3.0,72,0.00,,,0.00,Wunderground PWS Mod,2013-08-28 17:32:00,
2013-08-28 13:37:00,83.1,73.1,29.83,SW,225,0.0,3.0,72,0.00,,,0.00,Wunderground PWS Mod,2013-08-28 17:37:00,
2013-08-28 13:42:00,83.0,73.4,29.83,SSW,202,0.0,3.0,73,0.00,,,0.00,Wunderground PWS Mod,2013-08-28 17:42:00,
2013-08-28 13:47:00,82.8,73.7,29.83,SSW,192,0.0,3.0,74,0.00,,,0.00,Wunderground PWS Mod,2013-08-28 17:47:00,
2013-08-28 13:52:00,82.9,72.9,29.83,SW,219,0.0,3.0,72,0.00,,,0.00,Wunderground PWS Mod,2013-08-28 17:52:00,
2013-08-28 13:58:00,82.9,73.4,29.83,SW,232,0.0,3.0,73,0.00,,,0.00,Wunderground PWS Mod,2013-08-28 17:58:00,
2013-08-28 14:03:00,82.9,72.9,29.83,SSE,165,0.0,3.0,72,0.00,,,0.00,Wunderground PWS Mod,2013-08-28 18:03:00,
2013-08-28 14:09:00,83.0,73.9,29.83,SSE,150,0.0,3.0,74,0.00,,,0.00,Wunderground PWS Mod,2013-08-28 18:09:00,
2013-08-28 14:14:00,82.4,74.1,29.83,SSW,198,0.0,3.0,76,0.00,,,0.00,Wunderground PWS Mod,2013-08-28 18:14:00,
2013-08-28 14:20:00,82.0,72.9,29.83,SSW,202,0.0,3.0,74,0.00,,,0.00,Wunderground PWS Mod,2013-08-28 18:20:00,
2013-08-28 14:26:00,81.7,73.0,29.82,SW,221,0.0,3.0,75,0.00,,,0.00,Wunderground PWS Mod,2013-08-28 18:26:00,
2013-08-28 14:32:00,81.6,73.7,29.82,ESE,115,0.0,3.0,77,0.00,,,0.00,Wunderground PWS Mod,2013-08-28 18:32:00,
2013-08-28 14:37:00,81.8,72.3,29.82,SSW,204,0.0,3.0,73,0.00,,,0.00,Wunderground PWS Mod,2013-08-28 18:37:00,
2013-08-28 14:42:00,81.8,73.5,29.82,SE,144,0.0,3.0,76,0.00,,,0.00,Wunderground PWS Mod,2013-08-28 18:42:00,
2013-08-28 14:47:00,81.2,72.1,29.82,SSW,211,0.0,3.0,74,0.00,,,0.00,Wunderground PWS Mod,2013-08-28 18:47:00,
2013-08-28 14:52:00,81.1,73.2,29.82,ESE,117,0.0,3.0,77,0.00,,,0.00,Wunderground PWS Mod,2013-08-28 18:52:00,
2013-08-28 14:57:00,80.9,73.0,29.82,WSW,248,0.0,3.0,77,0.00,,,0.00,Wunderground PWS Mod,2013-08-28 18:57:00,
2013-08-28 15:03:00,80.5,71.8,29.82,SSE,153,0.0,3.0,75,0.00,,,0.00,Wunderground PWS Mod,2013-08-28 19:03:00,
2013-08-28 15:08:00,80.3,72.4,29.82,WSW,243,0.0,3.0,77,0.00,,,0.00,Wunderground PWS Mod,2013-08-28 19:08:00,
2013-08-28 15:13:00,80.1,72.6,29.82,SW,218,0.0,3.0,78,0.00,,,0.00,Wunderground PWS Mod,2013-08-28 19:13:00,
2013-08-28 15:18:00,80.0,72.9,29.83,ESE,123,0.0,3.0,79,0.00,,,0.00,Wunderground PWS Mod,2013-08-28 19:18:00,
2013-08-28 15:24:00,80.0,72.9,29.83,SW,218,0.0,3.0,79,0.00,,,0.00,Wunderground PWS Mod,2013-08-28 19:24:00,
2013-08-28 15:30:00,80.0,72.1,29.82,ESE,123,0.0,3.0,77,0.00,,,0.00,Wunderground PWS Mod,2013-08-28 19:30:00,
2013-08-28 15:36:00,79.5,72.4,29.83,South,184,0.0,3.0,79,0.00,,,0.00,Wunderground PWS Mod,2013-08-28 19:36:00,
2013-08-28 15:41:00,78.9,71.5,29.83,SW,214,0.0,3.0,78,0.00,,,0.00,Wunderground PWS Mod,2013-08-28 19:41:00,
2013-08-28 15:47:00,78.4,71.7,29.83,West,262,0.0,3.0,80,0.00,,,0.00,Wunderground PWS Mod,2013-08-28 19:47:00,
2013-08-28 15:52:00,77.4,70.7,29.82,SSW,210,0.0,3.0,80,0.00,,,0.00,Wunderground PWS Mod,2013-08-28 19:52:00,
2013-08-28 15:58:00,76.4,70.1,29.82,South,189,0.0,3.0,81,0.00,,,0.00,Wunderground PWS Mod,2013-08-28 19:58:00,
2013-08-28 16:04:00,75.5,70.0,29.83,WSW,238,0.0,3.0,83,0.00,,,0.00,Wunderground PWS Mod,2013-08-28 20:04:00,
2013-08-28 16:10:00,74.9,70.1,29.83,South,178,0.0,5.0,85,0.00,,,0.00,Wunderground PWS Mod,2013-08-28 20:10:00,
2013-08-28 16:14:00,75.6,70.1,29.83,SW,225,0.0,5.0,83,0.00,,,0.00,Wunderground PWS Mod,2013-08-28 20:14:00,
2013-08-28 16:15:00,74.6,69.8,29.84,South,175,0.0,5.0,85,0.00,,,0.00,Wunderground PWS Mod,2013-08-28 20:15:00,
2013-08-28 16:21:00,74.2,69.7,29.83,East,83,0.0,5.0,86,0.00,,,0.00,Wunderground PWS Mod,2013-08-28 20:21:00,
2013-08-28 16:26:00,73.8,69.7,29.84,South,187,0.0,5.0,87,0.00,,,0.00,Wunderground PWS Mod,2013-08-28 20:26:00,
2013-08-28 16:31:00,73.5,69.4,29.84,SSW,213,0.0,5.0,87,0.00,,,0.00,Wunderground PWS Mod,2013-08-28 20:31:00,
2013-08-28 16:36:00,73.3,69.5,29.84,SW,224,0.0,5.0,88,0.00,,,0.00,Wunderground PWS Mod,2013-08-28 20:36:00,
2013-08-28 16:42:00,73.1,69.3,29.84,SSW,211,0.0,5.0,88,0.00,,,0.00,Wunderground PWS Mod,2013-08-28 20:42:00,
2013-08-28 16:47:00,73.0,69.6,29.84,West,265,0.0,5.0,89,0.00,,,0.00,Wunderground PWS Mod,2013-08-28 20:47:00,
2013-08-28 16:53:00,72.7,69.3,29.84,SSW,194,0.0,5.0,89,0.00,,,0.00,Wunderground PWS Mod,2013-08-28 20:53:00,
2013-08-28 16:58:00,72.5,69.1,29.84,SW,222,0.0,5.0,89,0.00,,,0.00,Wunderground PWS Mod,2013-08-28 20:58:00,
2013-08-28 17:03:00,72.2,69.1,29.85,SE,125,0.0,5.0,90,0.00,,,0.00,Wunderground PWS Mod,2013-08-28 21:03:00,
2013-08-28 17:08:00,72.1,69.0,29.84,South,178,0.0,5.0,90,0.00,,,0.00,Wunderground PWS Mod,2013-08-28 21:08:00,
2013-08-28 17:14:00,71.8,68.7,29.84,SW,215,0.0,5.0,90,0.00,,,0.00,Wunderground PWS Mod,2013-08-28 21:14:00,
2013-08-28 17:20:00,71.6,68.8,29.84,SE,146,0.0,5.0,91,0.00,,,0.00,Wunderground PWS Mod,2013-08-28 21:20:00,
2013-08-28 17:25:00,71.6,69.2,29.84,ESE,121,0.0,5.0,92,0.00,,,0.00,Wunderground PWS Mod,2013-08-28 21:25:00,
2013-08-28 17:30:00,71.5,68.7,29.84,ESE,116,0.0,5.0,91,0.00,,,0.00,Wunderground PWS Mod,2013-08-28 21:30:00,
2013-08-28 17:35:00,71.5,69.1,29.84,ESE,116,0.0,5.0,92,0.00,,,0.00,Wunderground PWS Mod,2013-08-28 21:35:00,
2013-08-28 17:40:00,71.4,69.0,29.84,South,180,0.0,5.0,92,0.00,,,0.00,Wunderground PWS Mod,2013-08-28 21:40:00,
2013-08-28 17:46:00,71.4,69.0,29.84,SSW,202,0.0,5.0,92,0.00,,,0.00,Wunderground PWS Mod,2013-08-28 21:46:00,
2013-08-28 17:51:00,71.3,68.9,29.84,SSW,202,0.0,5.0,92,0.00,,,0.00,Wunderground PWS Mod,2013-08-28 21:51:00,
2013-08-28 17:56:00,71.3,68.9,29.84,South,171,0.0,5.0,92,0.00,,,0.00,Wunderground PWS Mod,2013-08-28 21:56:00,
2013-08-28 18:01:00,71.3,68.9,29.83,South,171,0.0,5.0,92,0.00,,,0.00,Wunderground PWS Mod,2013-08-28 22:01:00,
2013-08-28 18:06:00,71.2,68.8,29.83,South,171,0.0,5.0,92,0.00,,,0.00,Wunderground PWS Mod,2013-08-28 22:06:00,
2013-08-28 18:11:00,71.2,68.8,29.83,South,171,0.0,5.0,92,0.00,,,0.00,Wunderground PWS Mod,2013-08-28 22:11:00,
2013-08-28 18:16:00,71.1,68.7,29.83,SSW,192,0.0,5.0,92,0.00,,,0.00,Wunderground PWS Mod,2013-08-28 22:16:00,
2013-08-28 18:22:00,71.0,68.9,29.83,South,188,0.0,5.0,93,0.00,,,0.00,Wunderground PWS Mod,2013-08-28 22:22:00,
2013-08-28 18:27:00,71.0,68.9,29.84,South,189,0.0,5.0,93,0.00,,,0.00,Wunderground PWS Mod,2013-08-28 22:27:00,
2013-08-28 18:32:00,70.9,68.8,29.84,South,189,0.0,5.0,93,0.00,,,0.00,Wunderground PWS Mod,2013-08-28 22:32:00,
2013-08-28 18:38:00,70.8,69.0,29.84,South,189,0.0,5.0,94,0.00,,,0.00,Wunderground PWS Mod,2013-08-28 22:38:00,
2013-08-28 18:43:00,70.8,69.0,29.84,South,189,0.0,5.0,94,0.00,,,0.00,Wunderground PWS Mod,2013-08-28 22:43:00,
2013-08-28 18:48:00,70.7,68.9,29.85,East,83,0.0,5.0,94,0.00,,,0.00,Wunderground PWS Mod,2013-08-28 22:48:00,
2013-08-28 18:53:00,70.6,68.8,29.85,East,82,0.0,5.0,94,0.00,,,0.00,Wunderground PWS Mod,2013-08-28 22:53:00,
2013-08-28 18:59:00,70.5,68.7,29.85,East,82,0.0,5.0,94,0.00,,,0.00,Wunderground PWS Mod,2013-08-28 22:59:00,
2013-08-28 19:04:00,70.5,69.0,29.85,East,82,0.0,5.0,95,0.00,,,0.00,Wunderground PWS Mod,2013-08-28 23:04:00,
2013-08-28 19:10:00,70.4,68.9,29.84,East,82,0.0,5.0,95,0.00,,,0.00,Wunderground PWS Mod,2013-08-28 23:10:00,
2013-08-28 19:16:00,70.3,68.5,29.84,East,82,0.0,5.0,94,0.00,,,0.00,Wunderground PWS Mod,2013-08-28 23:16:00,
2013-08-28 19:21:00,70.3,68.8,29.84,East,82,0.0,5.0,95,0.00,,,0.00,Wunderground PWS Mod,2013-08-28 23:21:00,
2013-08-28 19:27:00,70.3,68.8,29.84,East,82,0.0,5.0,95,0.00,,,0.00,Wunderground PWS Mod,2013-08-28 23:27:00,
2013-08-28 19:32:00,70.2,68.7,29.84,East,82,0.0,5.0,95,0.00,,,0.00,Wunderground PWS Mod,2013-08-28 23:32:00,
2013-08-28 19:38:00,70.1,68.6,29.84,East,82,0.0,5.0,95,0.00,,,0.00,Wunderground PWS Mod,2013-08-28 23:38:00,
2013-08-28 19:43:00,70.0,68.5,29.84,East,82,0.0,5.0,95,0.00,,,0.00,Wunderground PWS Mod,2013-08-28 23:43:00,
2013-08-28 19:48:00,70.0,68.5,29.84,East,82,0.0,5.0,95,0.00,,,0.00,Wunderground PWS Mod,2013-08-28 23:48:00,
2013-08-28 19:53:00,69.9,68.4,29.85,East,82,0.0,5.0,95,0.00,,,0.00,Wunderground PWS Mod,2013-08-28 23:53:00,
2013-08-28 19:58:00,69.9,68.4,29.85,East,82,0.0,5.0,95,0.00,,,0.00,Wunderground PWS Mod,2013-08-28 23:58:00,
2013-08-28 20:03:00,69.9,68.4,29.85,East,82,0.0,5.0,95,0.00,,,0.00,Wunderground PWS Mod,2013-08-29 00:03:00,
2013-08-28 20:09:00,69.8,68.3,29.86,East,82,0.0,0.0,95,0.00,,,0.00,Wunderground PWS Mod,2013-08-29 00:09:00,
2013-08-28 20:13:00,69.8,68.3,29.85,N/A,-737280,0.0,0.0,95,0.00,,,0.00,Wunderground PWS Mod,2013-08-29 00:13:00,
2013-08-28 20:14:00,69.7,68.2,29.86,East,82,0.0,0.0,95,0.00,,,0.00,Wunderground PWS Mod,2013-08-29 00:14:00,
2013-08-28 20:20:00,69.6,68.1,29.86,East,82,0.0,0.0,95,0.00,,,0.00,Wunderground PWS Mod,2013-08-29 00:20:00,
2013-08-28 20:25:00,69.5,68.0,29.86,East,82,0.0,0.0,95,0.00,,,0.00,Wunderground PWS Mod,2013-08-29 00:25:00,
2013-08-28 20:30:00,69.4,67.9,29.86,East,82,0.0,0.0,95,0.00,,,0.00,Wunderground PWS Mod,2013-08-29 00:30:00,
2013-08-28 20:35:00,69.2,68.0,29.86,East,82,0.0,0.0,96,0.00,,,0.00,Wunderground PWS Mod,2013-08-29 00:35:00,
2013-08-28 20:41:00,69.1,67.9,29.86,East,82,0.0,0.0,96,0.00,,,0.00,Wunderground PWS Mod,2013-08-29 00:41:00,
2013-08-28 20:46:00,69.0,67.8,29.86,East,82,0.0,0.0,96,0.00,,,0.00,Wunderground PWS Mod,2013-08-29 00:46:00,
2013-08-28 20:51:00,69.0,67.8,29.86,East,82,0.0,0.0,96,0.00,,,0.00,Wunderground PWS Mod,2013-08-29 00:51:00,
2013-08-28 20:57:00,68.9,67.7,29.86,East,82,0.0,0.0,96,0.00,,,0.00,Wunderground PWS Mod,2013-08-29 00:57:00,
2013-08-28 21:02:00,68.9,67.7,29.87,East,82,0.0,0.0,96,0.00,,,0.00,Wunderground PWS Mod,2013-08-29 01:02:00,
2013-08-28 21:07:00,68.8,67.6,29.87,East,82,0.0,0.0,96,0.00,,,0.00,Wunderground PWS Mod,2013-08-29 01:07:00,
2013-08-28 21:12:00,68.8,67.6,29.87,East,82,0.0,0.0,96,0.00,,,0.00,Wunderground PWS Mod,2013-08-29 01:12:00,
2013-08-28 21:17:00,68.8,67.6,29.87,East,82,0.0,0.0,96,0.00,,,0.00,Wunderground PWS Mod,2013-08-29 01:17:00,
2013-08-28 21:23:00,68.7,67.5,29.87,East,82,0.0,0.0,96,0.00,,,0.00,Wunderground PWS Mod,2013-08-29 01:23:00,
2013-08-28 21:28:00,68.5,67.6,29.87,East,82,0.0,0.0,97,0.00,,,0.00,Wunderground PWS Mod,2013-08-29 01:28:00,
2013-08-28 21:33:00,68.5,67.6,29.87,East,82,0.0,0.0,97,0.00,,,0.00,Wunderground PWS Mod,2013-08-29 01:33:00,
2013-08-28 21:39:00,68.4,67.5,29.87,East,82,0.0,0.0,97,0.00,,,0.00,Wunderground PWS Mod,2013-08-29 01:39:00,
2013-08-28 21:44:00,68.4,67.5,29.88,East,82,0.0,0.0,97,0.00,,,0.00,Wunderground PWS Mod,2013-08-29 01:44:00,
2013-08-28 21:50:00,68.5,67.6,29.88,NNE,32,0.0,0.0,97,0.00,,,0.00,Wunderground PWS Mod,2013-08-29 01:50:00,
2013-08-28 21:56:00,68.5,67.6,29.88,NNE,12,0.0,0.0,97,0.00,,,0.00,Wunderground PWS Mod,2013-08-29 01:56:00,
2013-08-28 22:01:00,68.5,67.6,29.88,NNE,12,0.0,0.0,97,0.00,,,0.00,Wunderground PWS Mod,2013-08-29 02:01:00,
2013-08-28 22:07:00,68.4,67.5,29.88,NE,55,0.0,0.0,97,0.00,,,0.00,Wunderground PWS Mod,2013-08-29 02:07:00,
2013-08-28 22:12:00,68.4,67.5,29.87,NE,54,0.0,0.0,97,0.00,,,0.00,Wunderground PWS Mod,2013-08-29 02:12:00,
2013-08-28 22:18:00,68.3,67.4,29.87,NE,54,0.0,0.0,97,0.00,,,0.00,Wunderground PWS Mod,2013-08-29 02:18:00,
2013-08-28 22:23:00,68.1,67.2,29.87,NE,54,0.0,0.0,97,0.00,,,0.00,Wunderground PWS Mod,2013-08-29 02:23:00,
2013-08-28 22:28:00,68.1,67.2,29.87,NE,54,0.0,0.0,97,0.00,,,0.00,Wunderground PWS Mod,2013-08-29 02:28:00,
2013-08-28 22:33:00,68.0,67.1,29.87,NE,54,0.0,0.0,97,0.00,,,0.00,Wunderground PWS Mod,2013-08-29 02:33:00,
2013-08-28 22:39:00,68.0,67.1,29.87,NE,54,0.0,0.0,97,0.00,,,0.00,Wunderground PWS Mod,2013-08-29 02:39:00,
2013-08-28 22:44:00,68.0,67.4,29.86,NE,54,0.0,0.0,98,0.00,,,0.00,Wunderground PWS Mod,2013-08-29 02:44:00,
2013-08-28 22:50:00,68.0,67.4,29.86,NE,54,0.0,0.0,98,0.00,,,0.00,Wunderground PWS Mod,2013-08-29 02:50:00,
2013-08-28 22:55:00,67.9,67.3,29.86,NE,54,0.0,0.0,98,0.00,,,0.00,Wunderground PWS Mod,2013-08-29 02:55:00,
2013-08-28 23:00:00,67.9,67.3,29.86,NE,54,0.0,0.0,98,0.00,,,0.00,Wunderground PWS Mod,2013-08-29 03:00:00,
2013-08-28 23:06:00,68.0,67.4,29.86,NE,54,0.0,0.0,98,0.00,,,0.00,Wunderground PWS Mod,2013-08-29 03:06:00,
2013-08-28 23:11:00,68.0,67.4,29.86,NE,54,0.0,0.0,98,0.00,,,0.00,Wunderground PWS Mod,2013-08-29 03:11:00,
2013-08-28 23:17:00,68.0,67.4,29.87,NE,54,0.0,0.0,98,0.00,,,0.00,Wunderground PWS Mod,2013-08-29 03:17:00,
2013-08-28 23:23:00,68.0,67.4,29.87,NE,54,0.0,0.0,98,0.00,,,0.00,Wunderground PWS Mod,2013-08-29 03:23:00,
2013-08-28 23:28:00,68.1,67.5,29.87,NE,54,0.0,0.0,98,0.00,,,0.00,Wunderground PWS Mod,2013-08-29 03:28:00,
2013-08-28 23:33:00,68.1,67.5,29.87,SW,219,0.0,0.0,98,0.00,,,0.00,Wunderground PWS Mod,2013-08-29 03:33:00,
2013-08-28 23:39:00,68.0,67.4,29.87,SSW,209,0.0,0.0,98,0.00,,,0.00,Wunderground PWS Mod,2013-08-29 03:39:00,
2013-08-28 23:45:00,67.9,67.3,29.87,SSW,209,0.0,0.0,98,0.00,,,0.00,Wunderground PWS Mod,2013-08-29 03:45:00,
2013-08-28 23:50:00,67.9,67.3,29.87,SSW,209,0.0,0.0,98,0.00,,,0.00,Wunderground PWS Mod,2013-08-29 03:50:00,
2013-08-28 23:55:00,67.8,67.2,29.87,SSW,209,0.0,0.0,98,0.00,,,0.00,Wunderground PWS Mod,2013-08-29 03:55:00,